Time;durP1;ratioP1;P1;durP2;ratioP2;P2;SDS_P1;SDS_P2;PMS_P1;PMS_P2;Temp;Humidity;BMP_temperature;BMP_pressure;BME280_temperature;BME280_humidity;BME280_pressure;Samples;Min_cycle;Max_cycle;Signal;HPM_P1;HPM_P2
2021/10/15 00:01:05;;;;;;;0.93;0.93;;;8.80;74.60;;;;;;4963214;28;20225;-70
2021/10/15 00:03:32;;;;;;;0.40;0.40;;;8.70;74.70;;;;;;4964904;28;20571;-70
2021/10/15 00:05:59;;;;;;;0.93;0.87;;;8.70;74.90;;;;;;4964355;28;20355;-70
2021/10/15 00:08:26;;;;;;;1.40;1.33;;;8.60;74.90;;;;;;4964186;28;20649;-70
2021/10/15 00:10:53;;;;;;;0.40;0.40;;;8.60;75.10;;;;;;4969901;28;20681;-70
2021/10/15 00:13:20;;;;;;;0.10;0.10;;;8.60;75.40;;;;;;4964694;28;20243;-70
2021/10/15 00:15:47;;;;;;;0.40;0.40;;;8.50;75.30;;;;;;4965575;28;20222;-70
2021/10/15 00:18:14;;;;;;;2.30;0.40;;;8.50;75.40;;;;;;4966012;28;20228;-70
2021/10/15 00:20:41;;;;;;;0.30;0.30;;;8.50;75.80;;;;;;4971595;28;20253;-70
2021/10/15 00:23:08;;;;;;;0.10;0.10;;;8.40;75.80;;;;;;4961741;28;20217;-70
2021/10/15 00:25:35;;;;;;;0.20;0.20;;;8.50;75.90;;;;;;4959545;28;20663;-70
2021/10/15 00:28:02;;;;;;;1.80;0.63;;;8.50;76.00;;;;;;4964588;28;20217;-70
2021/10/15 00:30:29;;;;;;;0.30;0.30;;;8.40;76.20;;;;;;4964292;28;20216;-70
2021/10/15 00:32:56;;;;;;;0.77;0.77;;;8.40;76.20;;;;;;4962741;28;20222;-70
2021/10/15 00:35:23;;;;;;;0.63;0.63;;;8.40;76.30;;;;;;4965619;28;20241;-70
2021/10/15 00:37:50;;;;;;;0.50;0.50;;;8.30;76.40;;;;;;4977581;28;20556;-70
2021/10/15 00:40:18;;;;;;;0.67;0.67;;;8.40;76.50;;;;;;4965053;28;20216;-70
2021/10/15 00:42:45;;;;;;;0.10;0.10;;;8.40;76.40;;;;;;4963835;28;20236;-70
2021/10/15 00:45:12;;;;;;;1.30;0.83;;;8.40;76.50;;;;;;4966058;28;20221;-70
2021/10/15 00:47:39;;;;;;;0.30;0.30;;;8.40;76.50;;;;;;4964381;28;20213;-70
2021/10/15 00:50:06;;;;;;;0.93;0.80;;;8.40;76.60;;;;;;4963574;28;20300;-70
2021/10/15 00:52:34;;;;;;;0.30;0.30;;;8.30;76.60;;;;;;4976077;28;20229;-70
2021/10/15 00:55:01;;;;;;;0.57;0.57;;;8.30;76.50;;;;;;4962192;28;20233;-70
2021/10/15 00:57:28;;;;;;;0.23;0.23;;;8.30;76.50;;;;;;4964865;28;20217;-70
2021/10/15 00:59:55;;;;;;;0.23;0.23;;;8.20;76.60;;;;;;4962716;28;20241;-70
2021/10/15 01:02:21;;;;;;;0.60;0.60;;;8.20;76.70;;;;;;4963496;28;20209;-70
2021/10/15 01:04:49;;;;;;;0.10;0.10;;;8.20;76.70;;;;;;4964014;28;20214;-70
2021/10/15 01:07:16;;;;;;;0.77;0.77;;;8.20;76.80;;;;;;4962906;28;20218;-70
2021/10/15 01:09:44;;;;;;;0.20;0.20;;;8.20;76.90;;;;;;4964872;28;20221;-70
2021/10/15 01:12:11;;;;;;;0.63;0.63;;;8.20;77.00;;;;;;4961084;28;20217;-70
2021/10/15 01:14:38;;;;;;;0.30;0.30;;;8.20;77.10;;;;;;4967390;28;20590;-70
2021/10/15 01:17:06;;;;;;;0.63;0.63;;;8.10;77.10;;;;;;4965396;28;20283;-70
2021/10/15 01:19:33;;;;;;;0.23;0.23;;;8.10;77.20;;;;;;4965018;28;20308;-70
2021/10/15 01:22:05;;;;;;;2.93;1.40;;;8.10;77.30;;;;;;4967762;28;20587;-71
2021/10/15 01:24:33;;;;;;;0.43;0.43;;;8.00;77.30;;;;;;4974260;28;20216;-70
2021/10/15 01:27:09;;;;;;;0.40;0.40;;;8.00;77.40;;;;;;4980583;28;20303;-70
2021/10/15 01:29:38;;;;;;;0.10;0.10;;;8.00;77.50;;;;;;4970451;28;20208;-70
2021/10/15 01:32:09;;;;;;;0.37;0.37;;;8.00;77.60;;;;;;4971865;28;20243;-70
2021/10/15 01:34:37;;;;;;;0.50;0.50;;;8.10;77.60;;;;;;4972706;28;20542;-70
2021/10/15 01:37:04;;;;;;;0.40;0.40;;;8.10;77.60;;;;;;4971845;28;20284;-70
2021/10/15 01:39:31;;;;;;;1.70;0.87;;;8.10;77.50;;;;;;4988184;28;20236;-70
2021/10/15 01:41:59;;;;;;;0.60;0.60;;;8.20;77.50;;;;;;4970150;28;20220;-70
2021/10/15 01:44:26;;;;;;;0.40;0.40;;;8.20;77.50;;;;;;4970704;28;20218;-70
2021/10/15 01:46:53;;;;;;;0.53;0.53;;;8.20;77.50;;;;;;4972548;28;20218;-70
2021/10/15 01:49:21;;;;;;;0.30;0.30;;;8.20;77.50;;;;;;4976240;28;20304;-70
2021/10/15 01:51:47;;;;;;;0.40;0.40;;;8.20;77.50;;;;;;4966148;28;20562;-70
2021/10/15 01:54:14;;;;;;;0.10;0.10;;;8.20;77.50;;;;;;4974898;28;20222;-70
2021/10/15 01:56:42;;;;;;;0.20;0.20;;;8.20;77.50;;;;;;4970115;28;20646;-71
2021/10/15 01:59:09;;;;;;;0.83;0.73;;;8.20;77.50;;;;;;4964291;28;20238;-70
2021/10/15 02:01:36;;;;;;;0.53;0.53;;;8.10;77.40;;;;;;4966884;28;20209;-70
2021/10/15 02:04:03;;;;;;;0.10;0.10;;;8.10;77.60;;;;;;4966213;28;20242;-70
2021/10/15 02:06:30;;;;;;;0.20;0.20;;;8.10;77.60;;;;;;4965605;28;20216;-70
2021/10/15 02:08:57;;;;;;;0.40;0.40;;;8.00;77.60;;;;;;4967366;28;20229;-70
2021/10/15 02:11:24;;;;;;;1.70;0.70;;;8.00;77.70;;;;;;4968855;28;20213;-70
2021/10/15 02:13:51;;;;;;;0.53;0.50;;;8.00;77.80;;;;;;4979275;28;20238;-70
2021/10/15 02:16:18;;;;;;;0.10;0.10;;;8.00;77.80;;;;;;4970809;28;20229;-70
2021/10/15 02:18:45;;;;;;;5.53;2.27;;;7.90;77.80;;;;;;4967866;28;20281;-70
2021/10/15 02:21:11;;;;;;;0.57;0.57;;;7.90;78.50;;;;;;4963778;28;20265;-70
2021/10/15 02:23:38;;;;;;;1.13;0.50;;;7.90;78.10;;;;;;4962851;28;20284;-70
2021/10/15 02:26:05;;;;;;;3.90;0.93;;;7.90;78.10;;;;;;4978899;28;20306;-70
2021/10/15 02:28:32;;;;;;;0.60;0.60;;;7.90;78.20;;;;;;4966922;28;20221;-70
2021/10/15 02:30:59;;;;;;;1.43;1.00;;;7.90;78.20;;;;;;4964275;28;20436;-70
2021/10/15 02:33:26;;;;;;;5.13;1.87;;;7.90;78.40;;;;;;4968668;28;20653;-70
2021/10/15 02:35:54;;;;;;;0.20;0.20;;;7.90;78.40;;;;;;4964261;28;20288;-70
2021/10/15 02:38:20;;;;;;;1.53;1.50;;;7.80;78.30;;;;;;4966652;28;20521;-70
2021/10/15 02:40:48;;;;;;;0.80;0.47;;;7.80;78.40;;;;;;4966968;28;20244;-70
2021/10/15 02:43:15;;;;;;;0.70;0.70;;;7.70;78.40;;;;;;4965916;28;20639;-70
2021/10/15 02:45:41;;;;;;;0.20;0.20;;;7.70;79.20;;;;;;4967211;28;20224;-70
2021/10/15 02:48:08;;;;;;;0.70;0.70;;;7.60;78.60;;;;;;4965723;28;20280;-70
2021/10/15 02:50:36;;;;;;;1.93;1.77;;;7.60;78.70;;;;;;4966919;28;20221;-70
2021/10/15 02:53:03;;;;;;;1.60;1.13;;;7.60;78.90;;;;;;4967024;28;20213;-70
2021/10/15 02:55:30;;;;;;;0.20;0.20;;;7.60;79.00;;;;;;4963272;28;20606;-70
2021/10/15 02:57:57;;;;;;;1.00;1.00;;;7.60;79.00;;;;;;4966057;28;20217;-70
2021/10/15 03:00:24;;;;;;;0.93;0.93;;;7.60;79.10;;;;;;4965039;28;20241;-70
2021/10/15 03:02:53;;;;;;;0.30;0.30;;;7.60;79.20;;;;;;4971516;28;20209;-70
2021/10/15 03:05:20;;;;;;;0.60;0.60;;;7.60;79.10;;;;;;4966547;28;20304;-70
2021/10/15 03:07:47;;;;;;;0.10;0.10;;;7.60;78.90;;;;;;4963543;28;20222;-70
2021/10/15 03:10:14;;;;;;;0.97;0.93;;;7.50;78.80;;;;;;4964031;28;20217;-70
2021/10/15 03:12:41;;;;;;;0.53;0.53;;;7.50;78.80;;;;;;4967122;28;20217;-70
2021/10/15 03:15:09;;;;;;;1.10;1.10;;;7.50;79.00;;;;;;4965680;28;20557;-70
2021/10/15 03:17:36;;;;;;;0.37;0.37;;;7.50;79.10;;;;;;4964445;28;20297;-70
2021/10/15 03:20:04;;;;;;;0.67;0.67;;;7.50;79.30;;;;;;4966308;28;20264;-70
2021/10/15 03:22:31;;;;;;;5.10;1.70;;;7.40;79.30;;;;;;4962028;28;20619;-70
2021/10/15 03:24:58;;;;;;;0.30;0.30;;;7.40;79.40;;;;;;4966396;28;20279;-70
2021/10/15 03:27:25;;;;;;;0.43;0.43;;;7.40;79.30;;;;;;4962586;28;20587;-70
2021/10/15 03:29:52;;;;;;;0.63;0.63;;;7.30;79.40;;;;;;4981265;28;20298;-70
2021/10/15 03:32:19;;;;;;;3.07;1.13;;;7.20;79.60;;;;;;4963415;28;20612;-70
2021/10/15 03:34:46;;;;;;;0.77;0.30;;;7.20;79.70;;;;;;4979965;28;20260;-70
2021/10/15 03:37:13;;;;;;;0.60;0.60;;;7.20;79.90;;;;;;4964469;28;20228;-70
2021/10/15 03:39:40;;;;;;;1.97;0.80;;;7.20;79.90;;;;;;4964265;28;20392;-70
2021/10/15 03:42:07;;;;;;;0.50;0.50;;;7.10;80.10;;;;;;4964442;28;20250;-70
2021/10/15 03:44:34;;;;;;;0.23;0.23;;;7.10;80.40;;;;;;4966497;28;20275;-70
2021/10/15 03:47:01;;;;;;;0.13;0.13;;;7.10;80.50;;;;;;4962805;28;20214;-70
2021/10/15 03:49:28;;;;;;;0.10;0.10;;;7.10;80.60;;;;;;4965814;28;20365;-70
2021/10/15 03:51:55;;;;;;;1.03;1.00;;;7.10;80.70;;;;;;4959274;28;20217;-70
2021/10/15 03:54:22;;;;;;;1.37;1.27;;;7.20;80.70;;;;;;4960511;28;20221;-70
2021/10/15 03:56:49;;;;;;;0.20;0.20;;;7.20;80.70;;;;;;4963800;28;20288;-70
2021/10/15 03:59:16;;;;;;;0.63;0.63;;;7.30;80.60;;;;;;4965786;28;20237;-72
2021/10/15 04:01:43;;;;;;;0.57;0.37;;;7.30;80.40;;;;;;4978193;28;20847;-70
2021/10/15 04:04:10;;;;;;;0.67;0.67;;;7.30;80.30;;;;;;4965808;28;20232;-70
2021/10/15 04:06:37;;;;;;;0.50;0.50;;;7.20;80.20;;;;;;4969070;28;20554;-71
2021/10/15 04:09:05;;;;;;;5.97;1.90;;;7.20;80.30;;;;;;4963712;28;20221;-70
2021/10/15 04:11:32;;;;;;;0.37;0.37;;;7.10;80.30;;;;;;4969704;28;20225;-71
2021/10/15 04:13:59;;;;;;;0.77;0.77;;;7.10;80.40;;;;;;4964519;28;20630;-71
2021/10/15 04:16:26;;;;;;;0.20;0.20;;;7.10;80.40;;;;;;4964486;28;20228;-71
2021/10/15 04:18:54;;;;;;;0.43;0.43;;;7.10;80.50;;;;;;4966867;28;20646;-71
2021/10/15 04:21:20;;;;;;;0.63;0.60;;;7.10;80.50;;;;;;4959490;28;20217;-71
2021/10/15 04:23:47;;;;;;;0.53;0.53;;;7.10;80.50;;;;;;4975515;28;20214;-72
2021/10/15 04:26:14;;;;;;;1.50;1.40;;;7.10;80.60;;;;;;4962009;28;20257;-71
2021/10/15 04:28:43;;;;;;;3.40;1.80;;;7.10;80.70;;;;;;4965015;28;20216;-71
2021/10/15 04:31:10;;;;;;;0.30;0.30;;;7.00;80.80;;;;;;4963292;28;20590;-71
2021/10/15 04:33:37;;;;;;;0.40;0.40;;;7.00;80.80;;;;;;4963641;28;20217;-71
2021/10/15 04:36:05;;;;;;;0.20;0.20;;;7.00;80.90;;;;;;4963945;28;20604;-71
2021/10/15 04:38:32;;;;;;;0.27;0.27;;;7.00;80.90;;;;;;4962404;28;20642;-71
2021/10/15 04:41:00;;;;;;;1.13;1.07;;;7.00;80.90;;;;;;4965511;28;20247;-71
2021/10/15 04:43:28;;;;;;;0.27;0.27;;;7.00;80.90;;;;;;4961781;28;20753;-71
2021/10/15 04:45:55;;;;;;;2.80;1.70;;;6.90;80.90;;;;;;4966610;28;20279;-71
2021/10/15 04:48:21;;;;;;;0.23;0.23;;;6.90;80.90;;;;;;4964139;28;20617;-71
2021/10/15 04:50:48;;;;;;;1.47;0.97;;;6.90;81.60;;;;;;4963843;28;20220;-71
2021/10/15 04:53:15;;;;;;;0.67;0.67;;;6.90;80.90;;;;;;4961493;28;20608;-71
2021/10/15 04:55:42;;;;;;;0.20;0.20;;;6.90;80.90;;;;;;4957883;28;20653;-71
2021/10/15 04:58:09;;;;;;;0.77;0.77;;;6.90;80.80;;;;;;4965665;28;20217;-71
2021/10/15 05:00:36;;;;;;;1.40;1.03;;;6.90;80.80;;;;;;4965098;28;20240;-71
2021/10/15 05:03:04;;;;;;;0.10;0.10;;;6.90;80.80;;;;;;4962470;28;20689;-71
2021/10/15 05:05:33;;;;;;;20.03;1.77;;;6.80;80.70;;;;;;4966988;28;20244;-71
2021/10/15 05:08:01;;;;;;;0.20;0.20;;;6.80;80.80;;;;;;4984484;28;20217;-71
2021/10/15 05:10:28;;;;;;;0.67;0.67;;;6.80;80.90;;;;;;4971403;28;20295;-71
2021/10/15 05:12:56;;;;;;;0.40;0.40;;;6.80;81.00;;;;;;4978345;28;20213;-71
2021/10/15 05:15:23;;;;;;;0.70;0.70;;;6.70;81.00;;;;;;4973320;28;20221;-71
2021/10/15 05:17:50;;;;;;;0.40;0.40;;;6.70;80.90;;;;;;4985767;28;20232;-71
2021/10/15 05:20:21;;;;;;;0.30;0.30;;;6.70;80.90;;;;;;4967971;28;20279;-71
2021/10/15 05:22:48;;;;;;;1.10;0.87;;;6.70;81.00;;;;;;4964731;28;20640;-71
2021/10/15 05:25:15;;;;;;;0.50;0.50;;;6.70;81.10;;;;;;4968163;28;20213;-71
2021/10/15 05:27:44;;;;;;;0.47;0.47;;;6.70;81.20;;;;;;4966351;28;20257;-71
2021/10/15 05:30:12;;;;;;;0.20;0.20;;;6.80;81.30;;;;;;4968038;28;20222;-71
2021/10/15 05:32:40;;;;;;;1.03;1.03;;;6.80;81.30;;;;;;4968259;28;20225;-71
2021/10/15 05:35:08;;;;;;;2.20;0.93;;;6.80;81.20;;;;;;4968313;28;20224;-71
2021/10/15 05:37:35;;;;;;;1.23;1.13;;;6.80;81.00;;;;;;4967440;28;20225;-71
2021/10/15 05:40:04;;;;;;;0.63;0.63;;;6.70;81.00;;;;;;4984377;28;20590;-72
2021/10/15 05:42:31;;;;;;;0.83;0.83;;;6.70;81.00;;;;;;4981410;28;20213;-71
2021/10/15 05:44:58;;;;;;;0.40;0.40;;;6.70;81.00;;;;;;4967701;28;20591;-71
2021/10/15 05:47:25;;;;;;;0.57;0.57;;;6.80;81.00;;;;;;4979809;28;20228;-71
2021/10/15 05:49:53;;;;;;;0.17;0.17;;;6.80;80.90;;;;;;4962680;28;20630;-71
2021/10/15 05:52:41;;;;;;;0.20;0.20;;;6.70;80.70;;;;;;4964812;28;20222;-71
2021/10/15 06:00:27;;;;;;;0.20;0.20;;;6.80;80.90;;;;;;4965330;28;20248;-71
2021/10/15 06:02:54;;;;;;;0.83;0.53;;;6.80;80.90;;;;;;4966994;28;20237;-71
2021/10/15 06:15:55;;;;;;;0.20;0.20;;;7.10;80.70;;;;;;4947256;29;20312;-70
2021/10/15 06:18:24;;;;;;;0.40;0.40;;;7.30;80.70;;;;;;4946467;28;20218;-69
2021/10/15 06:20:52;;;;;;;0.73;0.73;;;7.40;80.60;;;;;;4947860;28;20294;-71
2021/10/15 06:23:20;;;;;;;0.20;0.20;;;7.40;80.40;;;;;;4972676;28;20659;-71
2021/10/15 06:25:47;;;;;;;0.73;0.73;;;7.50;80.20;;;;;;4946824;29;20228;-71
2021/10/15 06:28:14;;;;;;;0.73;0.73;;;7.60;80.10;;;;;;4945767;29;20218;-71
2021/10/15 06:30:42;;;;;;;0.30;0.30;;;7.70;80.60;;;;;;4945686;28;20638;-70
2021/10/15 06:33:09;;;;;;;0.93;0.70;;;7.80;79.80;;;;;;4947528;29;20650;-70
2021/10/15 06:35:36;;;;;;;3.20;1.40;;;7.80;79.60;;;;;;4952147;29;20226;-70
2021/10/15 06:38:06;;;;;;;0.17;0.17;;;7.90;79.40;;;;;;4948324;28;20288;-70
2021/10/15 06:40:36;;;;;;;1.07;0.70;;;8.00;79.30;;;;;;4945339;29;20265;-70
2021/10/15 06:43:05;;;;;;;0.73;0.73;;;8.10;79.10;;;;;;4946443;28;20217;-70
2021/10/15 06:45:32;;;;;;;0.40;0.40;;;8.20;79.00;;;;;;4948141;29;20526;-70
2021/10/15 06:47:59;;;;;;;0.67;0.67;;;8.30;78.90;;;;;;4945170;28;20528;-71
2021/10/15 06:50:26;;;;;;;1.57;1.47;;;8.40;78.60;;;;;;4947319;28;20214;-71
2021/10/15 06:52:53;;;;;;;1.90;0.67;;;8.60;78.60;;;;;;4944363;29;20643;-71
2021/10/15 06:55:21;;;;;;;0.67;0.67;;;8.70;78.50;;;;;;4953830;29;20217;-71
2021/10/15 06:57:49;;;;;;;0.67;0.50;;;8.80;78.30;;;;;;4945544;29;20564;-71
2021/10/15 07:00:18;;;;;;;0.40;0.40;;;8.90;78.40;;;;;;4945875;28;20686;-71
2021/10/15 07:02:45;;;;;;;2.90;0.70;;;9.00;78.50;;;;;;4946716;29;20226;-71
2021/10/15 07:05:13;;;;;;;0.33;0.33;;;9.20;78.50;;;;;;4944572;28;20224;-71
2021/10/15 07:07:40;;;;;;;0.50;0.50;;;9.40;78.20;;;;;;4943601;29;20214;-71
2021/10/15 07:10:08;;;;;;;0.43;0.43;;;9.70;77.80;;;;;;4944072;28;20222;-71
2021/10/15 07:12:43;;;;;;;0.70;0.70;;;9.90;77.10;;;;;;4946720;28;20218;-71
2021/10/15 07:15:13;;;;;;;0.97;0.97;;;10.20;76.60;;;;;;4946196;29;20287;-71
2021/10/15 07:17:41;;;;;;;1.83;1.03;;;10.40;75.80;;;;;;4945625;28;20214;-71
2021/10/15 07:20:09;;;;;;;1.60;0.83;;;10.60;75.00;;;;;;4948401;29;20322;-71
2021/10/15 07:22:37;;;;;;;0.80;0.80;;;10.90;74.70;;;;;;4972622;28;20901;-71
2021/10/15 07:25:06;;;;;;;0.57;0.57;;;11.10;74.10;;;;;;4945054;29;20269;-71
2021/10/15 07:27:34;;;;;;;1.40;0.73;;;11.30;73.60;;;;;;4950959;29;20252;-71
2021/10/15 07:30:04;;;;;;;2.73;0.53;;;11.50;72.80;;;;;;4977381;28;20638;-71
2021/10/15 07:32:33;;;;;;;0.37;0.37;;;11.70;72.40;;;;;;4943390;28;20645;-71
2021/10/15 07:35:00;;;;;;;0.57;0.57;;;11.90;71.90;;;;;;4946648;28;20241;-71
2021/10/15 07:37:28;;;;;;;0.80;0.80;;;12.10;71.40;;;;;;4944378;29;20222;-70
2021/10/15 07:39:55;;;;;;;1.40;0.40;;;12.30;70.80;;;;;;4945185;28;20304;-70
2021/10/15 07:42:22;;;;;;;0.63;0.63;;;12.40;70.20;;;;;;4945317;28;20218;-70
2021/10/15 07:44:50;;;;;;;1.13;1.10;;;12.60;69.80;;;;;;4953796;28;20214;-70
2021/10/15 07:47:17;;;;;;;7.73;1.40;;;12.70;69.30;;;;;;4940309;28;20285;-70
2021/10/15 07:49:43;;;;;;;0.60;0.60;;;12.80;68.70;;;;;;4943436;28;20273;-70
2021/10/15 07:52:10;;;;;;;3.50;0.67;;;13.00;68.10;;;;;;4942007;28;20218;-70
2021/10/15 07:54:38;;;;;;;0.40;0.40;;;13.10;67.40;;;;;;4946268;28;20217;-70
2021/10/15 07:57:05;;;;;;;2.53;1.07;;;13.30;67.10;;;;;;4944428;29;20698;-70
2021/10/15 07:59:33;;;;;;;0.60;0.60;;;13.40;66.70;;;;;;4944975;28;20209;-70
2021/10/15 08:02:00;;;;;;;1.03;1.03;;;13.60;66.30;;;;;;4945155;29;20669;-70
2021/10/15 08:04:27;;;;;;;1.73;1.63;;;13.80;65.70;;;;;;4943704;29;20210;-70
2021/10/15 08:06:54;;;;;;;2.40;0.63;;;14.00;65.30;;;;;;4946272;28;20236;-70
2021/10/15 08:09:21;;;;;;;1.07;0.60;;;14.10;64.80;;;;;;4946004;29;20241;-70
2021/10/15 08:11:48;;;;;;;4.37;2.23;;;14.30;64.50;;;;;;4945738;28;20257;-70
2021/10/15 08:14:15;;;;;;;1.00;0.90;;;14.40;63.20;;;;;;4944046;29;20629;-70
2021/10/15 08:16:42;;;;;;;1.13;1.13;;;14.50;63.30;;;;;;4940430;28;20214;-70
2021/10/15 08:19:29;;;;;;;1.70;0.93;;;14.60;62.90;;;;;;4949974;29;20226;-70
2021/10/15 08:21:56;;;;;;;2.60;2.13;;;14.80;62.50;;;;;;4948291;28;20585;-70
2021/10/15 08:24:24;;;;;;;2.37;2.27;;;14.90;62.20;;;;;;4950822;28;20220;-70
2021/10/15 08:26:51;;;;;;;1.23;1.13;;;15.00;61.70;;;;;;4947830;29;20594;-70
2021/10/15 08:29:18;;;;;;;1.57;1.47;;;15.20;61.50;;;;;;4945013;28;20226;-70
2021/10/15 08:31:46;;;;;;;2.77;1.70;;;15.30;59.90;;;;;;4946110;29;20683;-69
2021/10/15 08:34:13;;;;;;;1.13;1.07;;;15.20;59.00;;;;;;4945877;28;20273;-69
2021/10/15 08:36:41;;;;;;;1.87;1.77;;;15.10;59.00;;;;;;4941933;29;20236;-70
2021/10/15 08:39:09;;;;;;;5.13;1.97;;;15.10;59.20;;;;;;4950760;29;20221;-69
2021/10/15 08:41:36;;;;;;;0.77;0.77;;;15.20;60.00;;;;;;4948287;29;20234;-69
2021/10/15 08:44:04;;;;;;;1.53;1.43;;;15.20;59.00;;;;;;4950336;28;20276;-69
2021/10/15 08:46:32;;;;;;;2.07;1.67;;;15.40;59.40;;;;;;4949936;29;20272;-69
2021/10/15 08:48:59;;;;;;;0.77;0.77;;;15.50;58.40;;;;;;4946609;28;20214;-70
2021/10/15 08:51:26;;;;;;;1.50;1.40;;;15.50;58.20;;;;;;4952142;28;20225;-70
2021/10/15 08:53:55;;;;;;;0.50;0.50;;;15.70;58.70;;;;;;4945652;29;20296;-71
2021/10/15 08:56:23;;;;;;;2.53;1.90;;;15.80;58.30;;;;;;4983661;28;20618;-70
2021/10/15 08:58:59;;;;;;;2.10;2.00;;;15.90;58.00;;;;;;4949063;29;20242;-71
2021/10/15 09:01:27;;;;;;;3.23;2.60;;;16.00;57.50;;;;;;4961489;28;20248;-71
2021/10/15 09:04:05;;;;;;;1.57;1.47;;;16.10;57.80;;;;;;4956033;29;20599;-70
2021/10/15 09:06:40;;;;;;;1.80;1.70;;;16.30;57.70;;;;;;4949732;29;20251;-70
2021/10/15 09:09:08;;;;;;;1.23;1.20;;;16.40;57.00;;;;;;4946752;29;20358;-70
2021/10/15 09:11:38;;;;;;;2.27;2.17;;;16.50;56.90;;;;;;4955354;28;20225;-69
2021/10/15 09:14:11;;;;;;;1.63;1.53;;;16.60;57.10;;;;;;4981543;28;20660;-70
2021/10/15 09:17:07;;;;;;;0.97;0.97;;;16.70;56.40;;;;;;4956867;29;20249;-70
2021/10/15 09:19:36;;;;;;;1.70;1.60;;;16.80;56.50;;;;;;4965705;28;20222;-70
2021/10/15 09:22:17;;;;;;;4.07;0.70;;;16.90;56.70;;;;;;4957311;28;20292;-70
2021/10/15 09:24:49;;;;;;;2.37;2.13;;;17.10;56.40;;;;;;4948326;29;20214;-70
2021/10/15 09:27:19;;;;;;;1.27;0.60;;;17.30;55.70;;;;;;4949403;29;20734;-70
2021/10/15 09:30:11;;;;;;;0.63;0.63;;;17.40;55.00;;;;;;4951281;29;20643;-72
2021/10/15 09:32:39;;;;;;;1.33;1.33;;;17.40;55.40;;;;;;4948861;28;20706;-69
2021/10/15 09:35:09;;;;;;;6.57;2.83;;;17.50;55.10;;;;;;4949516;28;20268;-70
2021/10/15 09:37:39;;;;;;;1.67;1.57;;;17.60;54.80;;;;;;4949750;28;20257;-70
2021/10/15 09:40:13;;;;;;;1.23;1.17;;;17.70;54.60;;;;;;4953303;29;20270;-70
2021/10/15 09:42:44;;;;;;;3.30;1.53;;;17.70;53.40;;;;;;4948013;29;20558;-70
2021/10/15 09:45:27;;;;;;;1.80;1.70;;;17.70;54.10;;;;;;4947942;29;20258;-70
2021/10/15 09:47:59;;;;;;;1.00;1.00;;;17.80;54.40;;;;;;4947997;29;20265;-70
2021/10/15 09:50:29;;;;;;;1.87;1.77;;;17.90;53.10;;;;;;4946200;28;20225;-70
2021/10/15 09:53:04;;;;;;;0.77;0.50;;;17.90;53.00;;;;;;4959262;28;20561;-69
2021/10/15 09:55:42;;;;;;;0.80;0.80;;;18.00;53.50;;;;;;4949150;28;20222;-70
2021/10/15 09:58:10;;;;;;;5.73;2.80;;;18.00;53.10;;;;;;4955745;29;20264;-68
2021/10/15 10:00:38;;;;;;;0.90;0.90;;;18.20;53.20;;;;;;4945129;28;20292;-68
2021/10/15 10:03:06;;;;;;;0.20;0.20;;;18.30;52.60;;;;;;4979871;28;20248;-69
2021/10/15 10:05:33;;;;;;;0.90;0.90;;;18.40;52.00;;;;;;4976763;28;20224;-68
2021/10/15 10:08:01;;;;;;;1.30;1.20;;;18.50;51.30;;;;;;4947586;28;20540;-69
2021/10/15 10:10:31;;;;;;;4.07;2.37;;;18.50;51.00;;;;;;4947039;29;20222;-68
2021/10/15 10:12:59;;;;;;;1.20;1.20;;;18.50;50.90;;;;;;4949456;28;20518;-68
2021/10/15 10:15:29;;;;;;;0.53;0.53;;;18.50;51.20;;;;;;4948421;29;20217;-68
2021/10/15 10:17:59;;;;;;;0.53;0.53;;;18.70;51.40;;;;;;4945503;29;20219;-70
2021/10/15 10:20:29;;;;;;;8.50;2.07;;;18.90;51.50;;;;;;4954212;28;20218;-70
2021/10/15 10:23:06;;;;;;;1.50;1.40;;;19.00;50.40;;;;;;4955591;28;20222;-69
2021/10/15 10:25:35;;;;;;;1.60;1.50;;;19.00;50.30;;;;;;4976034;28;20218;-68
2021/10/15 10:28:15;;;;;;;0.60;0.47;;;19.00;49.90;;;;;;4946153;28;20269;-68
2021/10/15 10:30:45;;;;;;;1.80;1.70;;;19.10;50.20;;;;;;4950944;29;20209;-69
2021/10/15 10:33:12;;;;;;;2.10;1.97;;;19.30;50.20;;;;;;4945138;29;20222;-68
2021/10/15 10:35:42;;;;;;;2.23;1.77;;;19.40;49.80;;;;;;4947208;28;20284;-69
2021/10/15 10:38:30;;;;;;;2.40;1.73;;;19.50;49.40;;;;;;4946833;29;20553;-68
2021/10/15 10:41:02;;;;;;;0.90;0.90;;;19.60;49.20;;;;;;4943167;29;20290;-68
2021/10/15 10:43:55;;;;;;;1.73;1.63;;;19.70;48.90;;;;;;4947577;29;20213;-68
2021/10/15 10:46:25;;;;;;;2.93;2.10;;;19.80;48.80;;;;;;4947817;29;20253;-68
2021/10/15 10:48:52;;;;;;;1.23;1.13;;;19.90;48.80;;;;;;4944919;28;20281;-69
2021/10/15 10:51:25;;;;;;;1.77;1.67;;;20.00;48.50;;;;;;4949246;28;20876;-68
2021/10/15 10:54:04;;;;;;;0.40;0.40;;;20.10;48.60;;;;;;4944814;28;20720;-69
2021/10/15 10:56:37;;;;;;;0.63;0.63;;;20.20;48.60;;;;;;4951454;28;20214;-69
2021/10/15 10:59:20;;;;;;;2.53;2.33;;;20.30;48.40;;;;;;4976625;28;20226;-68
2021/10/15 11:01:55;;;;;;;4.27;2.80;;;20.30;46.40;;;;;;4943053;29;20271;-68
2021/10/15 11:04:32;;;;;;;1.20;1.20;;;20.30;46.80;;;;;;4946515;28;20217;-69
2021/10/15 11:07:07;;;;;;;6.33;2.20;;;20.20;46.50;;;;;;4946201;29;20218;-69
2021/10/15 11:09:43;;;;;;;1.60;1.43;;;20.20;46.20;;;;;;4948241;28;20214;-68
2021/10/15 11:12:14;;;;;;;1.60;1.50;;;20.20;46.20;;;;;;4944847;28;20214;-69
2021/10/15 11:14:47;;;;;;;5.97;3.13;;;20.20;46.50;;;;;;4947721;28;20221;-69
2021/10/15 11:17:14;;;;;;;1.50;1.33;;;20.20;46.50;;;;;;4945056;29;20241;-69
2021/10/15 11:19:41;;;;;;;5.23;1.70;;;20.30;46.20;;;;;;4946068;28;20229;-68
2021/10/15 11:22:09;;;;;;;1.33;1.10;;;20.30;45.70;;;;;;4950192;28;20675;-68
2021/10/15 11:24:36;;;;;;;3.43;1.83;;;20.30;45.50;;;;;;4947558;28;20218;-69
2021/10/15 11:27:15;;;;;;;0.53;0.53;;;20.30;45.90;;;;;;4945665;29;20264;-69
2021/10/15 11:29:57;;;;;;;2.60;1.03;;;20.40;46.10;;;;;;4951704;28;20300;-68
2021/10/15 11:32:31;;;;;;;2.07;1.97;;;20.40;46.10;;;;;;4944652;28;20286;-68
2021/10/15 11:35:07;;;;;;;4.47;2.03;;;20.50;45.40;;;;;;4945992;29;20220;-69
2021/10/15 11:37:44;;;;;;;19.03;1.27;;;20.50;44.90;;;;;;4943505;29;20233;-68
2021/10/15 11:40:27;;;;;;;1.27;1.27;;;20.50;45.40;;;;;;4944854;29;20217;-69
2021/10/15 11:43:04;;;;;;;4.23;1.90;;;20.50;44.20;;;;;;4951379;29;20237;-68
2021/10/15 11:45:38;;;;;;;1.50;1.27;;;20.40;44.90;;;;;;4945881;28;20705;-68
2021/10/15 11:48:12;;;;;;;3.07;0.63;;;20.30;45.20;;;;;;4947378;29;20260;-68
2021/10/15 11:50:44;;;;;;;2.37;2.13;;;20.30;44.90;;;;;;4948041;28;20221;-68
2021/10/15 11:53:15;;;;;;;4.03;1.37;;;20.20;44.80;;;;;;4940026;29;20252;-68
2021/10/15 11:55:42;;;;;;;1.37;1.27;;;20.20;44.50;;;;;;4947247;29;20217;-69
2021/10/15 11:58:28;;;;;;;1.47;1.27;;;20.10;44.10;;;;;;4944940;28;20237;-69
2021/10/15 12:01:19;;;;;;;1.20;1.10;;;20.10;44.00;;;;;;4977632;28;20270;-69
2021/10/15 12:03:51;;;;;;;1.53;1.43;;;20.10;44.00;;;;;;4945977;29;20270;-69
2021/10/15 12:06:20;;;;;;;1.73;1.63;;;20.00;43.50;;;;;;4946658;28;20219;-69
2021/10/15 12:08:48;;;;;;;24.87;1.93;;;20.00;43.10;;;;;;4953117;29;20284;-69
2021/10/15 12:11:23;;;;;;;2.53;2.23;;;19.90;42.80;;;;;;4947131;29;20657;-69
2021/10/15 12:13:52;;;;;;;1.97;1.53;;;19.90;43.10;;;;;;4947823;28;20225;-69
2021/10/15 12:16:27;;;;;;;4.03;3.60;;;19.90;43.60;;;;;;4943933;29;20214;-69
2021/10/15 12:19:02;;;;;;;0.93;0.93;;;19.90;43.30;;;;;;4945152;29;20225;-68
2021/10/15 12:21:31;;;;;;;1.03;0.93;;;19.80;42.70;;;;;;4951954;28;20233;-68
2021/10/15 12:23:59;;;;;;;2.00;1.90;;;19.70;43.70;;;;;;4943605;28;20226;-68
2021/10/15 12:26:26;;;;;;;2.57;2.37;;;19.70;43.80;;;;;;4952473;29;20584;-68
2021/10/15 12:28:53;;;;;;;0.60;0.60;;;19.70;43.90;;;;;;4944149;29;20277;-69
2021/10/15 12:31:36;;;;;;;1.67;1.57;;;19.80;43.90;;;;;;4947846;29;20589;-69
2021/10/15 12:34:14;;;;;;;1.13;1.13;;;19.90;44.10;;;;;;4943512;29;20222;-69
2021/10/15 12:36:42;;;;;;;1.63;1.53;;;20.00;44.10;;;;;;4951668;29;20221;-69
2021/10/15 12:39:24;;;;;;;2.67;0.87;;;20.00;44.10;;;;;;4978085;28;20536;-69
2021/10/15 12:41:54;;;;;;;3.30;2.37;;;20.00;43.40;;;;;;4974597;28;20625;-69
2021/10/15 12:44:22;;;;;;;1.27;1.27;;;20.00;43.10;;;;;;4944500;28;20220;-69
2021/10/15 12:46:55;;;;;;;1.67;1.57;;;20.00;43.30;;;;;;4944491;29;20329;-69
2021/10/15 12:49:22;;;;;;;3.60;1.43;;;19.90;42.50;;;;;;4961363;28;20281;-69
2021/10/15 12:51:49;;;;;;;0.67;0.67;;;19.80;43.00;;;;;;4951853;28;20677;-69
2021/10/15 12:54:39;;;;;;;1.07;1.07;;;19.70;43.60;;;;;;4944397;29;20246;-69
2021/10/15 12:57:16;;;;;;;4.97;1.77;;;19.80;43.80;;;;;;4945224;28;20594;-69
2021/10/15 13:00:04;;;;;;;2.93;1.83;;;19.90;44.00;;;;;;4943409;28;20558;-69
2021/10/15 13:02:31;;;;;;;1.03;1.03;;;19.90;44.00;;;;;;4943749;29;20281;-68
2021/10/15 13:05:04;;;;;;;1.40;1.07;;;20.00;43.80;;;;;;4941993;29;20293;-68
2021/10/15 13:07:31;;;;;;;17.63;6.50;;;20.10;43.90;;;;;;4939575;29;20214;-69
2021/10/15 13:10:10;;;;;;;2.00;1.70;;;20.10;43.50;;;;;;4952536;29;20455;-69
2021/10/15 13:12:39;;;;;;;1.50;1.00;;;20.00;42.80;;;;;;4946027;29;20221;-69
2021/10/15 13:15:06;;;;;;;0.73;0.73;;;19.90;42.80;;;;;;4946791;28;20225;-69
2021/10/15 13:17:35;;;;;;;2.13;1.10;;;19.80;43.00;;;;;;4943489;29;20222;-69
2021/10/15 13:20:03;;;;;;;2.13;1.93;;;19.70;42.80;;;;;;4945540;28;20221;-69